createdAt,value
2018-07-02T00:02:27.854Z,18.10
2018-07-02T00:04:56.239Z,18.10
2018-07-02T00:07:25.585Z,18.00
2018-07-02T00:09:54.292Z,18.00
2018-07-02T00:12:23.407Z,18.00
2018-07-02T00:14:52.462Z,18.00
2018-07-02T00:17:20.857Z,17.90
2018-07-02T00:19:49.218Z,17.90
2018-07-02T00:22:17.590Z,17.80
2018-07-02T00:24:45.995Z,17.70
2018-07-02T00:27:14.327Z,17.70
2018-07-02T00:29:42.652Z,17.70
2018-07-02T00:32:11.010Z,17.60
2018-07-02T00:34:39.318Z,17.60
2018-07-02T00:37:07.657Z,17.60
2018-07-02T00:39:35.998Z,17.60
2018-07-02T00:42:04.363Z,17.50
2018-07-02T00:44:32.711Z,17.50
2018-07-02T00:49:29.100Z,17.40
2018-07-02T00:51:57.394Z,17.40
2018-07-02T00:54:25.737Z,17.30
2018-07-02T00:56:54.066Z,17.30
2018-07-02T00:59:22.393Z,17.30
2018-07-02T01:01:50.746Z,17.30
2018-07-02T01:04:19.116Z,17.20
2018-07-02T01:06:47.454Z,17.20
2018-07-02T01:09:15.814Z,17.10
2018-07-02T01:11:44.158Z,17.00
2018-07-02T01:14:12.486Z,16.90
2018-07-02T01:16:42.518Z,16.90
2018-07-02T01:19:10.843Z,16.90
2018-07-02T01:21:39.152Z,16.90
2018-07-02T01:24:07.516Z,16.90
2018-07-02T01:26:35.816Z,16.80
2018-07-02T01:29:04.168Z,16.80
2018-07-02T01:31:32.518Z,16.70
2018-07-02T01:34:00.866Z,16.70
2018-07-02T01:36:29.178Z,16.60
2018-07-02T01:38:57.530Z,16.60
2018-07-02T01:41:25.841Z,16.60
2018-07-02T01:43:54.182Z,16.50
2018-07-02T01:46:22.619Z,16.40
2018-07-02T01:48:50.957Z,16.40
2018-07-02T01:51:19.298Z,16.30
2018-07-02T01:53:47.660Z,16.30
2018-07-02T01:56:15.985Z,16.30
2018-07-02T01:58:44.329Z,16.20
2018-07-02T02:01:12.633Z,16.20
2018-07-02T02:03:40.980Z,16.20
2018-07-02T02:06:09.300Z,16.10
2018-07-02T02:08:37.620Z,16.10
2018-07-02T02:11:06.136Z,16.10
2018-07-02T02:13:34.460Z,16.10
2018-07-02T02:16:02.783Z,16.00
2018-07-02T02:18:31.134Z,16.00
2018-07-02T02:20:59.443Z,16.00
2018-07-02T02:23:27.792Z,16.00
2018-07-02T02:25:56.190Z,16.00
2018-07-02T02:28:24.515Z,15.90
2018-07-02T02:30:52.814Z,16.00
2018-07-02T02:33:21.180Z,15.90
2018-07-02T02:35:49.520Z,15.90
2018-07-02T02:38:17.925Z,15.80
2018-07-02T02:40:46.172Z,15.70
2018-07-02T02:43:14.534Z,15.80
2018-07-02T02:45:42.904Z,15.80
2018-07-02T02:48:11.294Z,15.70
2018-07-02T02:50:39.644Z,15.70
2018-07-02T02:53:07.948Z,15.70
2018-07-02T02:55:36.264Z,15.60
2018-07-02T02:58:05.243Z,15.60
2018-07-02T03:00:33.560Z,15.60
2018-07-02T03:03:01.876Z,15.60
2018-07-02T03:07:58.272Z,15.40
2018-07-02T03:10:26.626Z,15.40
2018-07-02T03:12:54.946Z,15.40
2018-07-02T03:15:23.268Z,15.40
2018-07-02T03:17:51.590Z,15.40
2018-07-02T03:20:19.982Z,15.40
2018-07-02T03:22:48.285Z,15.40
2018-07-02T03:27:44.744Z,15.30
2018-07-02T03:30:13.070Z,15.30
2018-07-02T03:32:41.388Z,15.30
2018-07-02T03:37:37.818Z,15.20
2018-07-02T03:40:06.102Z,15.10
2018-07-02T03:42:34.438Z,15.10
2018-07-02T03:45:02.746Z,15.10
2018-07-02T03:47:31.137Z,15.10
2018-07-02T03:49:59.480Z,15.10
2018-07-02T03:52:27.824Z,15.10
2018-07-02T03:54:56.134Z,15.00
2018-07-02T03:57:24.576Z,15.10
2018-07-02T03:59:52.966Z,15.10
2018-07-02T04:02:21.266Z,15.10
2018-07-02T04:04:49.618Z,15.10
2018-07-02T04:07:17.960Z,15.10
2018-07-02T04:09:46.251Z,15.20
2018-07-02T04:14:44.287Z,15.10
2018-07-02T04:17:12.658Z,15.00
2018-07-02T04:19:40.998Z,15.10
2018-07-02T04:22:09.339Z,15.10
2018-07-02T04:24:37.688Z,15.20
2018-07-02T04:27:06.071Z,15.30
2018-07-02T04:29:34.403Z,15.20
2018-07-02T04:32:02.794Z,15.20
2018-07-02T04:34:31.107Z,15.20
2018-07-02T04:36:59.506Z,15.30
2018-07-02T04:39:27.863Z,15.20
2018-07-02T04:41:56.216Z,15.30
2018-07-02T04:44:24.506Z,15.30
2018-07-02T04:46:52.968Z,15.30
2018-07-02T04:49:21.304Z,15.30
2018-07-02T04:51:49.660Z,15.20
2018-07-02T04:54:18.083Z,15.30
2018-07-02T04:56:46.507Z,15.30
2018-07-02T04:59:14.876Z,15.30
2018-07-02T05:01:43.291Z,15.40
2018-07-02T05:04:11.676Z,15.50
2018-07-02T05:06:40.043Z,15.50
2018-07-02T05:09:08.797Z,15.50
2018-07-02T05:11:37.186Z,15.60
2018-07-02T05:14:05.504Z,15.60
2018-07-02T05:16:33.883Z,15.70
2018-07-02T05:19:03.494Z,15.60
2018-07-02T05:21:31.835Z,15.70
2018-07-02T05:24:00.179Z,15.70
2018-07-02T05:26:28.794Z,15.70
2018-07-02T05:28:57.272Z,15.80
2018-07-02T05:31:29.720Z,15.80
2018-07-02T05:33:58.722Z,15.80
2018-07-02T05:36:27.116Z,15.80
2018-07-02T05:38:55.585Z,15.80
2018-07-02T05:41:23.954Z,15.90
2018-07-02T05:43:52.252Z,16.00
2018-07-02T05:46:20.868Z,16.00
2018-07-02T05:48:49.369Z,16.00
2018-07-02T05:51:17.664Z,16.00
2018-07-02T05:53:45.998Z,16.00
2018-07-02T05:56:14.300Z,16.00
2018-07-02T05:58:42.633Z,16.10
2018-07-02T06:01:11.225Z,16.10
2018-07-02T06:03:39.532Z,16.10
2018-07-02T06:06:07.865Z,16.20
2018-07-02T06:08:36.200Z,16.20
2018-07-02T06:11:04.540Z,16.20
2018-07-02T06:13:32.880Z,16.30
2018-07-02T06:16:01.170Z,16.40
2018-07-02T06:18:29.466Z,16.40
2018-07-02T06:20:57.760Z,16.30
2018-07-02T06:23:26.117Z,16.40
2018-07-02T06:25:54.461Z,16.50
2018-07-02T06:28:22.760Z,16.50
2018-07-02T06:30:51.078Z,16.60
2018-07-02T06:33:19.396Z,16.60
2018-07-02T06:35:47.681Z,16.60
2018-07-02T06:38:15.988Z,16.70
2018-07-02T06:40:44.320Z,16.70
2018-07-02T06:45:40.744Z,16.90
2018-07-02T06:48:09.060Z,16.90
2018-07-02T06:50:37.488Z,16.90
2018-07-02T06:53:06.132Z,17.00
2018-07-02T06:55:34.428Z,17.00
2018-07-02T06:58:02.758Z,17.10
2018-07-02T07:00:31.164Z,17.10
2018-07-02T07:02:59.458Z,17.20
2018-07-02T07:05:27.791Z,17.20
2018-07-02T07:07:56.093Z,17.20
2018-07-02T07:10:24.406Z,17.30
2018-07-02T07:12:52.743Z,17.40
2018-07-02T07:15:21.044Z,17.40
2018-07-02T07:17:49.378Z,17.50
2018-07-02T07:20:17.695Z,17.50
2018-07-02T07:22:45.985Z,17.60
2018-07-02T07:25:14.684Z,17.70
2018-07-02T07:27:42.994Z,17.70
2018-07-02T07:30:11.372Z,17.80
2018-07-02T07:32:39.675Z,17.80
2018-07-02T07:35:08.005Z,17.90
2018-07-02T07:40:04.482Z,18.00
2018-07-02T07:42:32.792Z,18.10
2018-07-02T07:45:01.037Z,18.10
2018-07-02T07:47:29.336Z,18.20
2018-07-02T07:49:57.649Z,18.30
2018-07-02T07:52:25.980Z,18.30
2018-07-02T07:54:54.258Z,18.30
2018-07-02T07:57:22.544Z,18.40
2018-07-02T07:59:50.906Z,18.40
2018-07-02T08:02:19.196Z,18.40
2018-07-02T08:04:47.506Z,18.50
2018-07-02T08:07:15.812Z,18.60
2018-07-02T08:09:44.116Z,18.60
2018-07-02T08:12:12.424Z,18.60
2018-07-02T08:14:40.742Z,18.70
2018-07-02T08:17:09.056Z,18.80
2018-07-02T08:19:37.376Z,18.80
2018-07-02T08:22:05.668Z,18.90
2018-07-02T08:24:34.010Z,19.00
2018-07-02T08:27:02.389Z,19.10
2018-07-02T08:29:30.736Z,19.10
2018-07-02T08:31:59.236Z,19.20
2018-07-02T08:34:27.572Z,19.20
2018-07-02T08:36:55.873Z,19.20
2018-07-02T08:39:24.365Z,19.30
2018-07-02T08:41:52.710Z,19.30
2018-07-02T08:44:21.010Z,19.40
2018-07-02T08:46:49.406Z,19.40
2018-07-02T08:49:17.739Z,19.40
2018-07-02T08:51:46.066Z,19.60
2018-07-02T08:54:14.438Z,19.70
2018-07-02T08:56:43.145Z,19.70
2018-07-02T08:59:11.640Z,19.70
2018-07-02T09:01:40.048Z,19.70
2018-07-02T09:04:08.354Z,19.80
2018-07-02T09:06:36.684Z,19.80
2018-07-02T09:09:08.200Z,19.90
2018-07-02T09:11:36.776Z,20.00
2018-07-02T09:14:05.223Z,20.10
2018-07-02T09:16:33.551Z,20.10
2018-07-02T09:19:01.849Z,20.10
2018-07-02T09:21:30.256Z,20.20
2018-07-02T09:23:58.584Z,20.20
2018-07-02T09:26:26.915Z,20.20
2018-07-02T09:28:55.468Z,20.40
2018-07-02T09:31:23.915Z,20.40
2018-07-02T09:33:52.218Z,20.40
2018-07-02T09:36:20.548Z,20.50
2018-07-02T09:38:48.897Z,20.50
2018-07-02T09:41:17.187Z,20.50
2018-07-02T09:43:45.543Z,20.60
2018-07-02T09:46:13.796Z,20.60
2018-07-02T09:48:42.106Z,20.60
2018-07-02T09:51:10.422Z,20.70
2018-07-02T09:53:38.782Z,20.70
2018-07-02T09:56:07.079Z,20.80
2018-07-02T09:58:35.484Z,20.80
2018-07-02T10:01:03.808Z,21.00
2018-07-02T10:03:32.135Z,21.00
2018-07-02T10:06:00.461Z,21.00
2018-07-02T10:08:28.825Z,21.10
2018-07-02T10:10:57.113Z,21.10
2018-07-02T10:13:25.387Z,21.10
2018-07-02T10:15:53.693Z,21.20
2018-07-02T10:18:22.070Z,21.20
2018-07-02T10:20:50.356Z,21.30
2018-07-02T10:23:18.657Z,21.40
2018-07-02T10:30:43.177Z,21.50
2018-07-02T10:33:11.428Z,21.50
2018-07-02T10:35:39.751Z,21.60
2018-07-02T10:38:08.067Z,21.70
2018-07-02T10:40:36.421Z,21.70
2018-07-02T10:43:04.820Z,21.70
2018-07-02T10:45:33.119Z,21.70
2018-07-02T10:48:01.414Z,21.80
2018-07-02T10:52:57.762Z,22.00
2018-07-02T10:55:26.063Z,22.10
2018-07-02T10:57:54.454Z,22.20
2018-07-02T11:00:22.804Z,22.30
2018-07-02T11:05:19.245Z,22.40
2018-07-02T11:07:47.533Z,22.60
2018-07-02T11:10:15.952Z,22.60
2018-07-02T11:12:44.277Z,22.70
2018-07-02T11:15:12.614Z,22.70
2018-07-02T11:17:40.960Z,22.80
2018-07-02T11:20:09.242Z,22.80
2018-07-02T11:22:37.580Z,22.80
2018-07-02T11:25:06.007Z,22.90
2018-07-02T11:27:34.361Z,23.00
2018-07-02T11:30:02.745Z,23.10
2018-07-02T11:32:31.041Z,23.10
2018-07-02T11:34:59.341Z,23.20
2018-07-02T11:37:27.801Z,23.30
2018-07-02T11:39:56.093Z,23.30
2018-07-02T11:42:24.419Z,23.30
2018-07-02T11:44:52.786Z,23.50
2018-07-02T11:47:21.131Z,23.60
2018-07-02T11:49:49.501Z,23.60
2018-07-02T11:52:17.864Z,23.70
2018-07-02T11:54:46.219Z,24.00
2018-07-02T11:57:14.529Z,24.00
2018-07-02T11:59:42.861Z,23.90
2018-07-02T12:02:11.270Z,23.90
2018-07-02T12:04:39.622Z,24.00
2018-07-02T12:07:07.949Z,24.00
2018-07-02T12:09:36.288Z,24.40
2018-07-02T12:12:04.621Z,24.30
2018-07-02T12:14:32.923Z,24.30
2018-07-02T12:17:01.291Z,24.30
2018-07-02T12:19:29.614Z,24.70
2018-07-02T12:21:57.926Z,24.90
2018-07-02T12:24:26.244Z,24.80
2018-07-02T12:26:54.575Z,25.10
2018-07-02T12:29:22.906Z,25.00
2018-07-02T12:31:51.235Z,25.30
2018-07-02T12:34:19.779Z,25.20
2018-07-02T12:36:48.089Z,25.20
2018-07-02T12:41:44.668Z,25.30
2018-07-02T12:46:43.258Z,25.40
2018-07-02T12:49:12.011Z,25.50
2018-07-02T12:51:40.504Z,25.60
2018-07-02T12:54:08.852Z,25.60
2018-07-02T12:56:37.225Z,25.90
2018-07-02T12:59:05.580Z,26.00
2018-07-02T13:01:33.901Z,26.00
2018-07-02T13:04:02.366Z,26.30
2018-07-02T13:06:30.696Z,26.40
2018-07-02T13:11:28.464Z,26.30
2018-07-02T13:13:56.821Z,26.50
2018-07-02T13:16:25.289Z,26.70
2018-07-02T13:18:53.598Z,26.70
2018-07-02T13:21:22.815Z,26.80
2018-07-02T13:23:51.117Z,27.10
2018-07-02T13:26:19.514Z,27.10
2018-07-02T13:28:47.871Z,27.10
2018-07-02T13:31:16.244Z,27.20
2018-07-02T13:33:44.580Z,27.40
2018-07-02T13:36:13.297Z,27.40
2018-07-02T13:38:41.662Z,27.30
2018-07-02T13:41:09.966Z,27.20
2018-07-02T13:43:38.292Z,27.20
2018-07-02T13:46:06.678Z,27.40
2018-07-02T13:48:35.531Z,27.60
2018-07-02T13:51:03.884Z,27.90
2018-07-02T13:53:32.748Z,28.10
2018-07-02T13:56:02.856Z,28.30
2018-07-02T13:58:31.266Z,28.60
2018-07-02T14:00:59.594Z,28.60
2018-07-02T14:03:29.183Z,28.40
2018-07-02T14:05:58.022Z,28.40
2018-07-02T14:08:26.360Z,28.70
2018-07-02T14:10:54.703Z,28.50
2018-07-02T14:13:23.041Z,28.40
2018-07-02T14:15:51.738Z,28.60
2018-07-02T14:20:48.171Z,28.90
2018-07-02T14:23:16.574Z,29.00
2018-07-02T14:25:44.890Z,29.10
2018-07-02T14:28:13.218Z,29.10
2018-07-02T14:30:42.314Z,29.30
2018-07-02T14:33:10.709Z,29.40
2018-07-02T14:35:39.151Z,29.80
2018-07-02T14:38:07.459Z,29.90
2018-07-02T14:40:35.770Z,29.90
2018-07-02T14:43:04.088Z,30.00
2018-07-02T14:45:32.637Z,30.00
2018-07-02T14:48:00.758Z,29.90
2018-07-02T14:50:29.068Z,29.60
2018-07-02T14:52:57.406Z,29.70
2018-07-02T14:55:25.887Z,29.90
2018-07-02T14:57:54.228Z,29.80
2018-07-02T15:00:22.575Z,29.60
2018-07-02T15:02:50.863Z,29.70
2018-07-02T15:05:19.168Z,29.70
2018-07-02T15:07:47.439Z,30.00
2018-07-02T15:10:15.745Z,30.10
2018-07-02T15:12:44.053Z,30.10
2018-07-02T15:15:12.466Z,29.90
2018-07-02T15:17:40.958Z,29.40
2018-07-02T15:20:09.273Z,29.50
2018-07-02T15:22:37.785Z,29.20
2018-07-02T15:25:06.138Z,29.10
2018-07-02T15:30:02.585Z,29.00
2018-07-02T15:32:30.901Z,29.00
2018-07-02T15:34:59.265Z,29.10
2018-07-02T15:37:27.559Z,29.10
2018-07-02T15:39:55.895Z,29.10
2018-07-02T15:42:24.299Z,29.10
2018-07-02T15:44:53.277Z,29.10
2018-07-02T15:47:21.597Z,29.20
2018-07-02T15:49:49.967Z,29.20
2018-07-02T15:52:18.308Z,28.70
2018-07-02T15:54:46.645Z,28.40
2018-07-02T15:57:16.093Z,28.30
2018-07-02T15:59:44.524Z,28.20
2018-07-02T16:02:12.879Z,28.20
2018-07-02T16:04:41.869Z,28.00
2018-07-02T16:07:10.413Z,27.80
2018-07-02T16:09:38.737Z,27.60
2018-07-02T16:12:07.069Z,27.60
2018-07-02T16:19:31.667Z,27.80
2018-07-02T16:22:00.068Z,27.70
2018-07-02T16:24:28.395Z,27.90
2018-07-02T16:26:56.759Z,27.90
2018-07-02T16:29:25.190Z,27.80
2018-07-02T16:31:53.543Z,28.00
2018-07-02T16:34:22.016Z,27.90
2018-07-02T16:36:51.178Z,27.80
2018-07-02T16:39:19.768Z,27.60
2018-07-02T16:41:48.200Z,27.60
2018-07-02T16:46:44.873Z,27.40
2018-07-02T16:49:13.247Z,27.20
2018-07-02T16:51:41.745Z,27.10
2018-07-02T16:54:10.045Z,26.90
2018-07-02T16:56:38.650Z,27.00
2018-07-02T16:59:07.458Z,27.10
2018-07-02T17:01:35.955Z,27.30
2018-07-02T17:09:02.813Z,26.60
2018-07-02T17:11:31.111Z,26.50
2018-07-02T17:13:59.424Z,26.60
2018-07-02T17:16:29.303Z,26.50
2018-07-02T17:21:25.872Z,26.50
2018-07-02T17:23:54.332Z,26.40
2018-07-02T17:28:51.051Z,26.30
2018-07-02T17:31:19.357Z,26.10
2018-07-02T17:36:15.756Z,26.40
2018-07-02T17:38:44.546Z,26.00
2018-07-02T17:41:12.886Z,25.90
2018-07-02T17:43:41.229Z,25.80
2018-07-02T17:46:09.710Z,25.80
2018-07-02T17:48:38.050Z,25.80
2018-07-02T17:51:06.470Z,25.70
2018-07-02T17:53:34.873Z,25.60
2018-07-02T17:56:03.180Z,25.60
2018-07-02T17:58:31.522Z,25.60
2018-07-02T18:00:59.900Z,25.50
2018-07-02T18:03:28.206Z,25.30
2018-07-02T18:05:56.522Z,25.50
2018-07-02T18:08:24.826Z,25.30
2018-07-02T18:10:53.152Z,25.30
2018-07-02T18:13:21.480Z,25.30
2018-07-02T18:15:49.790Z,25.30
2018-07-02T18:18:18.066Z,25.30
2018-07-02T18:20:46.539Z,25.20
2018-07-02T18:23:14.871Z,25.00
2018-07-02T18:25:43.251Z,25.00
2018-07-02T18:28:11.627Z,25.10
2018-07-02T18:30:40.004Z,25.00
2018-07-02T18:33:08.609Z,25.00
2018-07-02T18:35:37.018Z,25.00
2018-07-02T18:38:05.417Z,24.80
2018-07-02T18:40:33.759Z,24.60
2018-07-02T18:43:02.134Z,24.60
2018-07-02T18:45:30.509Z,24.30
2018-07-02T18:50:27.020Z,24.10
2018-07-02T18:52:55.558Z,24.00
2018-07-02T18:55:23.997Z,23.80
2018-07-02T18:57:52.331Z,23.70
2018-07-02T19:00:20.836Z,23.60
2018-07-02T19:02:49.222Z,23.50
2018-07-02T19:05:17.735Z,23.50
2018-07-02T19:10:15.305Z,23.10
2018-07-02T19:12:43.667Z,23.00
2018-07-02T19:15:13.977Z,22.90
2018-07-02T19:20:11.523Z,22.70
2018-07-02T19:22:40.213Z,22.40
2018-07-02T19:25:08.946Z,22.40
2018-07-02T19:27:37.516Z,22.30
2018-07-02T19:30:05.938Z,22.10
2018-07-02T19:32:34.302Z,22.10
2018-07-02T19:37:30.787Z,22.00
2018-07-02T19:39:59.131Z,22.00
2018-07-02T19:42:27.473Z,21.60
2018-07-02T19:44:55.837Z,21.40
2018-07-02T19:47:24.203Z,21.40
2018-07-02T19:49:52.623Z,21.20
2018-07-02T19:52:22.523Z,21.10
2018-07-02T19:54:51.059Z,21.10
2018-07-02T19:57:19.510Z,21.10
2018-07-02T19:59:47.921Z,20.90
2018-07-02T20:02:16.297Z,20.80
2018-07-02T20:04:44.686Z,20.70
2018-07-02T20:07:13.159Z,20.50
2018-07-02T20:09:42.182Z,20.50
2018-07-02T20:12:10.626Z,20.60
2018-07-02T20:14:39.013Z,20.50
2018-07-02T20:17:09.382Z,20.40
2018-07-02T20:19:38.020Z,20.30
2018-07-02T20:22:06.365Z,20.30
2018-07-02T20:27:05.200Z,20.20
2018-07-02T20:29:34.077Z,20.10
2018-07-02T20:32:02.815Z,20.00
2018-07-02T20:34:31.221Z,19.90
2018-07-02T20:36:59.562Z,19.90
2018-07-02T20:39:28.131Z,19.90
2018-07-02T20:41:58.731Z,19.80
2018-07-02T20:44:27.774Z,19.70
2018-07-02T20:46:56.119Z,19.70
2018-07-02T20:49:24.535Z,19.60
2018-07-02T20:51:53.220Z,19.50
2018-07-02T20:54:21.692Z,19.50
2018-07-02T20:56:50.264Z,19.50
2018-07-02T20:59:18.733Z,19.40
2018-07-02T21:01:48.842Z,19.10
2018-07-02T21:04:18.014Z,19.20
2018-07-02T21:06:46.443Z,19.20
2018-07-02T21:09:15.245Z,19.30
2018-07-02T21:11:43.674Z,19.20
2018-07-02T21:14:12.268Z,19.10
2018-07-02T21:16:42.808Z,19.10
2018-07-02T21:19:11.756Z,19.10
2018-07-02T21:21:40.753Z,19.00
2018-07-02T21:24:09.368Z,19.00
2018-07-02T21:26:37.839Z,19.00
2018-07-02T21:29:06.183Z,19.00
2018-07-02T21:31:35.651Z,19.00
2018-07-02T21:34:04.372Z,18.90
2018-07-02T21:39:01.184Z,18.80
2018-07-02T21:41:30.680Z,18.80
2018-07-02T21:43:59.558Z,18.70
2018-07-02T21:46:28.404Z,18.70
2018-07-02T21:48:56.766Z,18.80
2018-07-02T21:51:25.099Z,18.60
2018-07-02T21:53:53.534Z,18.60
2018-07-02T21:56:21.860Z,18.60
2018-07-02T21:58:50.196Z,18.40
2018-07-02T22:01:21.547Z,18.30
2018-07-02T22:03:50.428Z,18.30
2018-07-02T22:06:19.324Z,18.30
2018-07-02T22:08:47.677Z,18.30
2018-07-02T22:11:16.547Z,18.20
2018-07-02T22:13:44.909Z,18.30
2018-07-02T22:18:41.380Z,18.20
2018-07-02T22:21:11.339Z,18.10
2018-07-02T22:23:39.794Z,18.10
2018-07-02T22:26:08.293Z,18.10
2018-07-02T22:28:36.741Z,18.10
2018-07-02T22:31:05.217Z,18.00
2018-07-02T22:33:33.521Z,18.00
2018-07-02T22:36:01.919Z,18.00
2018-07-02T22:38:30.263Z,17.90
2018-07-02T22:40:58.588Z,17.90
2018-07-02T22:43:27.001Z,17.80
2018-07-02T22:45:56.391Z,17.80
2018-07-02T22:48:25.025Z,17.70
2018-07-02T22:50:53.361Z,17.70
2018-07-02T22:53:21.675Z,17.70
2018-07-02T22:55:58.717Z,17.60
2018-07-02T22:58:27.321Z,17.50
2018-07-02T23:00:56.236Z,17.30
2018-07-02T23:03:24.791Z,17.40
2018-07-02T23:05:53.785Z,17.30
2018-07-02T23:08:22.187Z,17.20
2018-07-02T23:10:51.582Z,17.10
2018-07-02T23:13:20.240Z,17.00
2018-07-02T23:15:48.791Z,16.90
2018-07-02T23:18:17.285Z,16.90
2018-07-02T23:20:45.623Z,17.00
2018-07-02T23:23:13.925Z,17.00
2018-07-02T23:25:42.285Z,16.90
2018-07-02T23:28:10.631Z,16.90
2018-07-02T23:30:38.932Z,17.00
2018-07-02T23:33:07.234Z,17.00
2018-07-02T23:35:35.582Z,16.90
2018-07-02T23:38:03.929Z,16.80
2018-07-02T23:40:32.405Z,16.70
2018-07-02T23:43:00.803Z,16.80
2018-07-02T23:45:31.718Z,16.70
2018-07-02T23:48:00.381Z,16.70
2018-07-02T23:50:28.777Z,16.60
2018-07-02T23:52:57.142Z,16.60
2018-07-02T23:55:48.544Z,16.60
2018-07-02T23:58:17.080Z,16.50
